Main page
METAR-TAF:

METAR-TAF

Airports :

Madrid, Spain

Adolfo Suárez Madrid–Barajas Airport

latitude: 40-27N, longitude: 003-33W, elevation: 609 m

Current weather observation

The report was made 24 minutes ago, at 11:30 UTC
Wind 6 kt from the Southeast
Temperature 31°C
Humidity 43%
Pressure 1020 hPa
Visibility 10 km or more
no clouds below 1500 m and no cumulonimbus

METAR: LEMD 211130Z 14006KT CAVOK 31/17 Q1020 NOSIG

Time: 13:54 (11:54 UTC)

Forecast

The report was made 54 minutes ago, at 11:00 UTC
Forecast valid from 21 at 12 UTC to 22 at 18 UTC
Wind 4 kt from variable directions
Visibility 10 km or more
no clouds below 1500 m and no cumulonimbus
Probability 30% :
Temporary
from 21 at 12 UTC to 21 at 18 UTC
Wind 10 kt from the South/Southwest
Probability 30% :
Temporary
from 21 at 21 UTC to 22 at 03 UTC
Wind 10 kt from the South

TAF: LEMD 211100Z 2112/2218 VRB04KT CAVOK TX38/2115Z TN20/2206Z PROB30 TEMPO 2112/2118 21010KT PROB30 TEMPO 2121/2203 17010KT

Weather observations and forecasts of more than 4000 airports (METAR and TAF reports).

The available stations are represented by yellow and red dots on the map.

Hover mouse over dot to see the name of the station.

Then click to see weather observations and forecasts.

To change the map : click on the green buttons with a black cross to zoom in, on the green button with a dash to zoom out, or on the green arrows for adjacent maps.


METAR-TAF: